createdAt,value
2016-08-24T00:00:38.446Z,963.78
2016-08-24T00:01:41.181Z,963.81
2016-08-24T00:02:47.738Z,963.74
2016-08-24T00:03:39.365Z,963.76
2016-08-24T00:04:44.050Z,963.77
2016-08-24T00:05:34.790Z,963.74
2016-08-24T00:06:39.964Z,963.74
2016-08-24T00:07:40.247Z,963.74
2016-08-24T00:08:34.665Z,963.70
2016-08-24T00:09:45.306Z,963.69
2016-08-24T00:10:45.014Z,963.70
2016-08-24T00:11:38.215Z,963.73
2016-08-24T00:12:34.494Z,963.67
2016-08-24T00:13:33.190Z,963.71
2016-08-24T00:14:40.642Z,963.69
2016-08-24T00:15:31.832Z,963.66
2016-08-24T00:16:40.388Z,963.69
2016-08-24T00:17:39.529Z,963.64
2016-08-24T00:18:37.719Z,963.61
2016-08-24T00:19:33.973Z,963.63
2016-08-24T00:20:44.754Z,963.60
2016-08-24T00:21:38.818Z,963.63
2016-08-24T00:22:45.810Z,963.60
2016-08-24T00:23:40.543Z,963.61
2016-08-24T00:24:30.937Z,963.56
2016-08-24T00:25:37.827Z,963.57
2016-08-24T00:26:46.805Z,963.62
2016-08-24T00:27:44.766Z,963.57
2016-08-24T00:28:46.281Z,963.59
2016-08-24T00:29:34.401Z,963.56
2016-08-24T00:30:38.491Z,963.59
2016-08-24T00:31:38.972Z,963.56
2016-08-24T00:32:39.953Z,963.56
2016-08-24T00:33:39.867Z,963.58
2016-08-24T00:34:38.185Z,963.56
2016-08-24T00:35:34.495Z,963.60
2016-08-24T00:36:37.900Z,963.57
2016-08-24T00:37:49.591Z,963.56
2016-08-24T00:38:44.911Z,963.60
2016-08-24T00:39:33.325Z,963.57
2016-08-24T00:40:39.757Z,963.57
2016-08-24T00:41:49.963Z,963.57
2016-08-24T00:42:53.570Z,963.61
2016-08-24T00:43:38.947Z,963.59
2016-08-24T00:44:32.541Z,963.62
2016-08-24T00:45:39.917Z,963.56
2016-08-24T00:46:34.344Z,963.56
2016-08-24T00:47:44.221Z,963.53
2016-08-24T00:48:41.377Z,963.57
2016-08-24T00:49:46.489Z,963.55
2016-08-24T00:50:39.619Z,963.53
2016-08-24T00:51:48.360Z,963.51
2016-08-24T00:52:38.665Z,963.51
2016-08-24T00:53:33.427Z,963.48
2016-08-24T00:54:35.684Z,963.51
2016-08-24T00:55:28.299Z,963.49
2016-08-24T00:56:36.931Z,963.49
2016-08-24T00:57:46.120Z,963.46
2016-08-24T00:58:45.248Z,963.47
2016-08-24T00:59:43.511Z,963.44
2016-08-24T01:00:47.416Z,963.45
2016-08-24T01:01:39.781Z,963.46
2016-08-24T01:02:44.521Z,963.46
2016-08-24T01:03:34.499Z,963.46
2016-08-24T01:04:38.875Z,963.45
2016-08-24T01:05:45.057Z,963.48
2016-08-24T01:06:41.108Z,963.47
2016-08-24T01:07:43.488Z,963.46
2016-08-24T01:08:33.976Z,963.48
2016-08-24T01:09:39.451Z,963.49
2016-08-24T01:10:39.716Z,963.42
2016-08-24T01:11:43.713Z,963.50
2016-08-24T01:12:49.695Z,963.50
2016-08-24T01:13:45.942Z,963.43
2016-08-24T01:14:42.666Z,963.44
2016-08-24T01:15:41.311Z,963.45
2016-08-24T01:16:34.359Z,963.45
2016-08-24T01:17:42.233Z,963.42
2016-08-24T01:18:43.094Z,963.40
2016-08-24T01:19:39.689Z,963.40
2016-08-24T01:20:39.700Z,963.37
2016-08-24T01:21:52.067Z,963.35
2016-08-24T01:22:44.478Z,963.35
2016-08-24T01:23:34.739Z,963.35
2016-08-24T01:24:38.938Z,963.35
2016-08-24T01:25:49.437Z,963.35
2016-08-24T01:26:38.666Z,963.38
2016-08-24T01:27:40.473Z,963.32
2016-08-24T01:28:44.987Z,963.34
2016-08-24T01:29:36.993Z,963.33
2016-08-24T01:30:40.753Z,963.29
2016-08-24T01:31:42.311Z,963.30
2016-08-24T01:33:02.391Z,963.30
2016-08-24T01:33:39.926Z,963.31
2016-08-24T01:34:36.040Z,963.32
2016-08-24T01:35:34.141Z,963.35
2016-08-24T01:36:35.541Z,963.33
2016-08-24T01:37:37.190Z,963.38
2016-08-24T01:38:42.739Z,963.34
2016-08-24T01:39:45.799Z,963.35
2016-08-24T01:40:43.495Z,963.31
2016-08-24T01:41:44.921Z,963.33
2016-08-24T01:42:42.646Z,963.35
2016-08-24T01:43:48.867Z,963.31
2016-08-24T01:44:51.789Z,963.33
2016-08-24T01:45:50.647Z,963.32
2016-08-24T01:46:50.526Z,963.33
2016-08-24T01:47:40.140Z,963.32
2016-08-24T01:48:34.919Z,963.31
2016-08-24T01:49:39.702Z,963.31
2016-08-24T01:50:44.676Z,963.29
2016-08-24T01:51:34.925Z,963.30
2016-08-24T01:52:45.518Z,963.27
2016-08-24T01:53:40.271Z,963.31
2016-08-24T01:54:38.895Z,963.26
2016-08-24T01:55:35.001Z,963.24
2016-08-24T01:56:36.047Z,963.24
2016-08-24T01:57:39.923Z,963.24
2016-08-24T01:58:41.867Z,963.22
2016-08-24T01:59:33.709Z,963.25
2016-08-24T02:00:36.150Z,963.22
2016-08-24T02:01:38.911Z,963.22
2016-08-24T02:02:53.258Z,963.23
2016-08-24T02:03:42.947Z,963.26
2016-08-24T02:04:27.686Z,963.28
2016-08-24T02:05:38.339Z,963.22
2016-08-24T02:06:29.758Z,963.25
2016-08-24T02:07:44.585Z,963.20
2016-08-24T02:08:46.700Z,963.20
2016-08-24T02:09:28.858Z,963.20
2016-08-24T02:10:32.989Z,963.21
2016-08-24T02:11:43.951Z,963.15
2016-08-24T02:12:48.382Z,963.18
2016-08-24T02:13:44.223Z,963.17
2016-08-24T02:14:58.556Z,963.16
2016-08-24T02:15:54.449Z,963.15
2016-08-24T02:16:39.500Z,963.13
2016-08-24T02:17:37.234Z,963.14
2016-08-24T02:18:52.056Z,963.15
2016-08-24T02:19:49.966Z,963.13
2016-08-24T02:20:50.301Z,963.14
2016-08-24T02:21:33.567Z,963.12
2016-08-24T02:22:48.520Z,963.10
2016-08-24T02:23:38.228Z,963.11
2016-08-24T02:24:39.119Z,963.12
2016-08-24T02:25:50.445Z,963.11
2016-08-24T02:26:41.734Z,963.05
2016-08-24T02:27:34.301Z,963.10
2016-08-24T02:28:45.915Z,963.12
2016-08-24T02:29:44.488Z,963.06
2016-08-24T02:30:38.969Z,963.09
2016-08-24T02:31:40.206Z,963.09
2016-08-24T02:32:37.992Z,963.04
2016-08-24T02:33:45.667Z,963.05
2016-08-24T02:34:44.176Z,963.04
2016-08-24T02:35:38.120Z,963.05
2016-08-24T02:36:44.717Z,963.02
2016-08-24T02:37:45.965Z,963.01
2016-08-24T02:38:39.683Z,962.98
2016-08-24T02:39:40.113Z,962.99
2016-08-24T02:40:40.471Z,962.98
2016-08-24T02:41:39.559Z,962.95
2016-08-24T02:42:50.308Z,962.96
2016-08-24T02:43:33.641Z,962.96
2016-08-24T02:44:49.328Z,962.96
2016-08-24T02:45:47.080Z,962.92
2016-08-24T02:46:38.032Z,962.91
2016-08-24T02:47:43.059Z,962.90
2016-08-24T02:48:27.527Z,962.91
2016-08-24T02:49:48.866Z,962.84
2016-08-24T02:50:50.175Z,962.88
2016-08-24T02:51:42.881Z,962.86
2016-08-24T02:52:45.970Z,962.88
2016-08-24T02:53:45.867Z,962.81
2016-08-24T02:54:28.333Z,962.85
2016-08-24T02:55:41.105Z,962.80
2016-08-24T02:56:43.047Z,962.78
2016-08-24T02:57:48.124Z,962.82
2016-08-24T02:58:37.769Z,962.80
2016-08-24T02:59:43.128Z,962.85
2016-08-24T03:00:48.584Z,962.79
2016-08-24T03:01:44.629Z,962.74
2016-08-24T03:02:30.015Z,962.80
2016-08-24T03:03:33.684Z,962.79
2016-08-24T03:04:38.850Z,962.79
2016-08-24T03:05:40.315Z,962.78
2016-08-24T03:06:48.777Z,962.80
2016-08-24T03:07:37.841Z,962.80
2016-08-24T03:08:32.986Z,962.84
2016-08-24T03:09:52.518Z,962.83
2016-08-24T03:10:52.413Z,962.85
2016-08-24T03:11:33.658Z,962.87
2016-08-24T03:12:39.356Z,962.84
2016-08-24T03:13:35.374Z,962.86
2016-08-24T03:14:39.863Z,962.87
2016-08-24T03:15:39.115Z,962.79
2016-08-24T03:16:44.597Z,962.82
2016-08-24T03:17:41.286Z,962.85
2016-08-24T03:18:39.180Z,962.86
2016-08-24T03:19:41.911Z,962.87
2016-08-24T03:20:47.700Z,962.83
2016-08-24T03:21:43.115Z,962.85
2016-08-24T03:22:39.641Z,962.91
2016-08-24T03:23:34.947Z,962.88
2016-08-24T03:24:38.955Z,962.84
2016-08-24T03:25:38.934Z,962.86
2016-08-24T03:26:33.763Z,962.83
2016-08-24T03:27:38.787Z,962.85
2016-08-24T03:28:36.378Z,962.83
2016-08-24T03:29:41.438Z,962.78
2016-08-24T03:30:41.513Z,962.78
2016-08-24T03:31:35.558Z,962.77
2016-08-24T03:32:40.253Z,962.78
2016-08-24T03:33:48.866Z,962.78
2016-08-24T03:34:40.653Z,962.78
2016-08-24T03:35:32.505Z,962.77
2016-08-24T03:36:49.309Z,962.81
2016-08-24T03:37:36.686Z,962.76
2016-08-24T03:38:40.528Z,962.75
2016-08-24T03:39:35.004Z,962.77
2016-08-24T03:40:34.552Z,962.77
2016-08-24T03:41:39.913Z,962.76
2016-08-24T03:42:37.930Z,962.80
2016-08-24T03:43:35.848Z,962.75
2016-08-24T03:44:33.286Z,962.79
2016-08-24T03:45:40.201Z,962.75
2016-08-24T03:46:37.979Z,962.79
2016-08-24T03:47:43.807Z,962.79
2016-08-24T03:48:33.792Z,962.77
2016-08-24T03:49:37.866Z,962.77
2016-08-24T03:50:40.263Z,962.77
2016-08-24T03:51:40.939Z,962.73
2016-08-24T03:52:40.727Z,962.76
2016-08-24T03:53:33.138Z,962.78
2016-08-24T03:54:44.037Z,962.74
2016-08-24T03:55:36.758Z,962.73
2016-08-24T03:56:34.457Z,962.75
2016-08-24T03:57:34.572Z,962.78
2016-08-24T03:58:33.312Z,962.76
2016-08-24T03:59:38.575Z,962.76
2016-08-24T04:00:52.534Z,962.74
2016-08-24T04:01:36.789Z,962.71
2016-08-24T04:02:39.903Z,962.74
2016-08-24T04:03:40.500Z,962.70
2016-08-24T04:04:43.523Z,962.70
2016-08-24T04:05:42.557Z,962.72
2016-08-24T04:06:38.237Z,962.70
2016-08-24T04:07:39.977Z,962.75
2016-08-24T04:08:39.102Z,962.77
2016-08-24T04:09:28.269Z,962.78
2016-08-24T04:10:44.154Z,962.78
2016-08-24T04:11:45.085Z,962.81
2016-08-24T04:12:34.167Z,962.78
2016-08-24T04:13:35.190Z,962.80
2016-08-24T04:14:34.936Z,962.78
2016-08-24T04:15:31.292Z,962.83
2016-08-24T04:16:44.284Z,962.84
2016-08-24T04:17:33.513Z,962.81
2016-08-24T04:18:40.624Z,962.82
2016-08-24T04:19:51.294Z,962.82
2016-08-24T04:20:39.464Z,962.79
2016-08-24T04:21:49.932Z,962.83
2016-08-24T04:22:33.526Z,962.82
2016-08-24T04:23:35.062Z,962.84
2016-08-24T04:24:39.770Z,962.86
2016-08-24T04:25:43.162Z,962.90
2016-08-24T04:26:37.542Z,962.87
2016-08-24T04:27:33.847Z,962.92
2016-08-24T04:28:37.631Z,962.95
2016-08-24T04:29:32.786Z,962.90
2016-08-24T04:30:53.509Z,962.92
2016-08-24T04:31:40.483Z,962.94
2016-08-24T04:32:38.799Z,962.91
2016-08-24T04:33:37.164Z,962.91
2016-08-24T04:34:29.056Z,962.92
2016-08-24T04:35:40.511Z,962.90
2016-08-24T04:36:42.535Z,962.92
2016-08-24T04:37:40.754Z,962.88
2016-08-24T04:38:39.973Z,962.93
2016-08-24T04:39:27.301Z,962.89
2016-08-24T04:40:38.523Z,962.89
2016-08-24T04:41:40.167Z,962.88
2016-08-24T04:42:54.526Z,962.86
2016-08-24T04:43:37.913Z,962.89
2016-08-24T04:44:39.567Z,962.93
2016-08-24T04:45:34.800Z,962.93
2016-08-24T04:46:34.171Z,962.91
2016-08-24T04:47:41.209Z,962.88
2016-08-24T04:48:45.444Z,962.93
2016-08-24T04:49:38.783Z,962.91
2016-08-24T04:50:35.283Z,962.94
2016-08-24T04:51:32.447Z,962.92
2016-08-24T04:52:35.096Z,962.90
2016-08-24T04:53:41.189Z,962.89
2016-08-24T04:54:38.587Z,962.93
2016-08-24T04:55:38.536Z,962.92
2016-08-24T04:56:42.522Z,962.97
2016-08-24T04:57:28.233Z,962.93
2016-08-24T04:58:45.933Z,962.98
2016-08-24T04:59:43.696Z,962.98
2016-08-24T05:00:38.078Z,962.98
2016-08-24T05:01:38.561Z,963.00
2016-08-24T05:02:35.276Z,962.97
2016-08-24T05:03:48.447Z,962.98
2016-08-24T05:04:37.925Z,962.99
2016-08-24T05:05:50.939Z,962.97
2016-08-24T05:06:41.015Z,962.96
2016-08-24T05:07:33.057Z,962.94
2016-08-24T05:08:30.182Z,962.97
2016-08-24T05:09:30.355Z,962.93
2016-08-24T05:10:45.581Z,962.97
2016-08-24T05:11:39.205Z,962.99
2016-08-24T05:12:31.545Z,963.01
2016-08-24T05:13:34.888Z,963.01
2016-08-24T05:14:48.318Z,963.02
2016-08-24T05:15:38.329Z,963.03
2016-08-24T05:16:42.561Z,963.02
2016-08-24T05:17:38.974Z,963.05
2016-08-24T05:18:34.242Z,963.07
2016-08-24T05:19:33.834Z,963.09
2016-08-24T05:20:32.845Z,963.04
2016-08-24T05:21:43.127Z,963.08
2016-08-24T05:22:43.090Z,963.08
2016-08-24T05:23:41.393Z,963.05
2016-08-24T05:24:35.075Z,963.04
2016-08-24T05:25:32.207Z,963.08
2016-08-24T05:26:37.050Z,963.06
2016-08-24T05:27:39.765Z,963.02
2016-08-24T05:28:39.861Z,963.10
2016-08-24T05:29:39.377Z,963.06
2016-08-24T05:30:25.016Z,963.08
2016-08-24T05:31:34.710Z,963.07
2016-08-24T05:32:34.596Z,963.10
2016-08-24T05:33:34.507Z,963.09
2016-08-24T05:34:34.296Z,963.09
2016-08-24T05:35:36.451Z,963.13
2016-08-24T05:36:34.322Z,963.10
2016-08-24T05:37:36.619Z,963.16
2016-08-24T05:38:30.702Z,963.18
2016-08-24T05:39:39.550Z,963.20
2016-08-24T05:40:42.205Z,963.24
2016-08-24T05:41:34.459Z,963.18
2016-08-24T05:42:34.866Z,963.20
2016-08-24T05:43:33.334Z,963.21
2016-08-24T05:44:45.329Z,963.19
2016-08-24T05:45:43.409Z,963.18
2016-08-24T05:46:40.937Z,963.20
2016-08-24T05:47:39.267Z,963.19
2016-08-24T05:48:34.064Z,963.22
2016-08-24T05:49:42.060Z,963.23
2016-08-24T05:50:39.362Z,963.22
2016-08-24T05:51:39.169Z,963.24
2016-08-24T05:52:39.709Z,963.23
2016-08-24T05:53:41.224Z,963.23
2016-08-24T05:54:35.381Z,963.28
2016-08-24T05:55:36.869Z,963.31
2016-08-24T05:56:35.233Z,963.28
2016-08-24T05:57:43.343Z,963.28
2016-08-24T05:58:39.898Z,963.26
2016-08-24T05:59:32.444Z,963.26
2016-08-24T06:00:34.691Z,963.23
2016-08-24T06:01:46.203Z,963.24
2016-08-24T06:02:38.217Z,963.22
2016-08-24T06:03:41.674Z,963.25
2016-08-24T06:04:40.334Z,963.20
2016-08-24T06:05:30.889Z,963.19
2016-08-24T06:06:38.782Z,963.18
2016-08-24T06:07:33.949Z,963.16
2016-08-24T06:08:44.727Z,963.15
2016-08-24T06:09:38.072Z,963.16
2016-08-24T06:10:36.042Z,963.17
2016-08-24T06:11:39.250Z,963.17
2016-08-24T06:12:40.785Z,963.14
2016-08-24T06:13:48.133Z,963.16
2016-08-24T06:14:39.538Z,963.15
2016-08-24T06:15:28.711Z,963.15
2016-08-24T06:16:16.957Z,963.14
2016-08-24T06:17:43.836Z,963.17
2016-08-24T06:18:40.171Z,963.14
2016-08-24T06:19:32.384Z,963.16
2016-08-24T06:20:46.445Z,963.19
2016-08-24T06:21:34.735Z,963.17
2016-08-24T06:22:48.865Z,963.19
2016-08-24T06:23:41.958Z,963.19
2016-08-24T06:24:41.958Z,963.17
2016-08-24T06:25:46.447Z,963.18
2016-08-24T06:26:35.967Z,963.18
2016-08-24T06:27:42.979Z,963.18
2016-08-24T06:28:34.036Z,963.20
2016-08-24T06:29:33.825Z,963.20
2016-08-24T06:30:42.227Z,963.17
2016-08-24T06:31:31.840Z,963.20
2016-08-24T06:32:36.886Z,963.20
2016-08-24T06:33:35.310Z,963.19
2016-08-24T06:34:35.187Z,963.19
2016-08-24T06:35:53.528Z,963.19
2016-08-24T06:36:39.699Z,963.24
2016-08-24T06:37:41.892Z,963.25
2016-08-24T06:38:38.731Z,963.28
2016-08-24T06:39:39.976Z,963.24
2016-08-24T06:40:34.078Z,963.26
2016-08-24T06:41:34.504Z,963.23
2016-08-24T06:42:35.906Z,963.25
2016-08-24T06:43:43.344Z,963.22
2016-08-24T06:44:28.488Z,963.24
2016-08-24T06:45:39.196Z,963.24
2016-08-24T06:46:45.735Z,963.22
2016-08-24T06:47:44.092Z,963.22
2016-08-24T06:48:33.136Z,963.21
2016-08-24T06:49:41.295Z,963.20
2016-08-24T06:50:43.445Z,963.14
2016-08-24T06:51:31.964Z,963.15
2016-08-24T06:52:34.620Z,963.15
2016-08-24T06:53:34.722Z,963.18
2016-08-24T06:54:39.930Z,963.16
2016-08-24T06:55:49.427Z,963.17
2016-08-24T06:56:51.211Z,963.12
2016-08-24T06:57:35.265Z,963.16
2016-08-24T06:58:33.987Z,963.12
2016-08-24T06:59:39.853Z,963.12
2016-08-24T07:00:35.507Z,963.11
2016-08-24T07:01:48.973Z,963.09
2016-08-24T07:02:33.327Z,963.12
2016-08-24T07:03:38.994Z,963.04
2016-08-24T07:04:38.248Z,963.07
2016-08-24T07:05:51.597Z,963.06
2016-08-24T07:06:34.508Z,963.11
2016-08-24T07:07:34.448Z,963.08
2016-08-24T07:08:39.577Z,963.08
2016-08-24T07:09:40.150Z,963.07
2016-08-24T07:10:40.289Z,963.08
2016-08-24T07:11:32.902Z,963.04
2016-08-24T07:12:32.635Z,963.07
2016-08-24T07:13:39.907Z,963.04
2016-08-24T07:14:34.491Z,963.01
2016-08-24T07:15:39.132Z,963.04
2016-08-24T07:16:35.563Z,963.01
2016-08-24T07:17:38.855Z,963.01
2016-08-24T07:18:55.035Z,962.99
2016-08-24T07:19:34.064Z,963.00
2016-08-24T07:20:42.642Z,963.02
2016-08-24T07:21:39.839Z,963.00
2016-08-24T07:22:39.861Z,962.97
2016-08-24T07:23:38.244Z,963.05
2016-08-24T07:24:38.050Z,962.99
2016-08-24T07:25:39.172Z,963.07
2016-08-24T07:26:32.317Z,963.05
2016-08-24T07:27:34.062Z,962.96
2016-08-24T07:28:34.951Z,963.04
2016-08-24T07:29:36.653Z,963.00
2016-08-24T07:30:38.389Z,963.06
2016-08-24T07:31:52.933Z,963.05
2016-08-24T07:32:39.483Z,963.02
2016-08-24T07:33:39.981Z,963.02
2016-08-24T07:34:37.002Z,963.04
2016-08-24T07:35:35.429Z,963.03
2016-08-24T07:36:37.564Z,963.05
2016-08-24T07:37:40.329Z,963.06
2016-08-24T07:38:39.342Z,963.05
2016-08-24T07:39:39.849Z,963.08
2016-08-24T07:40:43.946Z,963.06
2016-08-24T07:41:38.569Z,963.01
2016-08-24T07:42:38.165Z,963.07
2016-08-24T07:43:44.618Z,963.10
2016-08-24T07:44:32.762Z,963.09
2016-08-24T07:45:33.507Z,963.08
2016-08-24T07:46:41.181Z,963.09
2016-08-24T07:47:27.111Z,963.10
2016-08-24T07:48:33.829Z,963.11
2016-08-24T07:49:28.933Z,963.11
2016-08-24T07:50:33.691Z,963.11
2016-08-24T07:51:38.881Z,963.06
2016-08-24T07:52:29.467Z,963.07
2016-08-24T07:53:28.761Z,963.11
2016-08-24T07:54:30.439Z,963.12
2016-08-24T07:55:26.483Z,963.13
2016-08-24T07:56:25.901Z,963.08
2016-08-24T07:57:27.101Z,963.11
2016-08-24T07:58:22.620Z,963.13
2016-08-24T07:59:29.460Z,963.10
2016-08-24T08:00:30.639Z,963.08
2016-08-24T08:01:27.416Z,963.07
2016-08-24T08:02:28.114Z,963.08
2016-08-24T08:03:26.280Z,963.12
2016-08-24T08:04:28.936Z,963.18
2016-08-24T08:05:24.615Z,963.05
2016-08-24T08:06:27.091Z,963.09
2016-08-24T08:07:28.360Z,963.08
2016-08-24T08:08:28.565Z,963.11
2016-08-24T08:09:28.421Z,963.10
2016-08-24T08:10:34.671Z,963.07
2016-08-24T08:11:26.185Z,963.08
2016-08-24T08:12:27.101Z,963.10
2016-08-24T08:13:32.737Z,963.04
2016-08-24T08:14:23.530Z,963.05
2016-08-24T08:15:30.760Z,963.05
2016-08-24T08:16:28.675Z,963.04
2016-08-24T08:17:28.333Z,963.05
2016-08-24T08:18:26.840Z,963.09
2016-08-24T08:19:27.368Z,963.05
2016-08-24T08:20:28.110Z,963.04
2016-08-24T08:21:26.453Z,963.05
2016-08-24T08:22:27.242Z,963.04
2016-08-24T08:23:23.169Z,963.06
2016-08-24T08:24:29.501Z,963.12
2016-08-24T08:25:34.152Z,963.05
2016-08-24T08:26:27.872Z,963.05
2016-08-24T08:27:27.153Z,963.09
2016-08-24T08:28:25.902Z,963.06
2016-08-24T08:29:32.093Z,963.08
2016-08-24T08:30:23.390Z,963.12
2016-08-24T08:31:27.758Z,963.05
2016-08-24T08:32:28.680Z,963.06
2016-08-24T08:33:28.179Z,963.15
2016-08-24T08:34:27.434Z,963.07
2016-08-24T08:35:26.523Z,963.11
2016-08-24T08:36:25.299Z,963.09
2016-08-24T08:37:23.578Z,963.06
2016-08-24T08:38:22.942Z,963.02
2016-08-24T08:39:27.143Z,963.03
2016-08-24T08:40:26.179Z,963.04
2016-08-24T08:41:28.250Z,962.98
2016-08-24T08:42:27.889Z,963.05
2016-08-24T08:43:29.963Z,963.00
2016-08-24T08:44:33.197Z,963.01
2016-08-24T08:45:27.203Z,963.00
2016-08-24T08:46:23.478Z,962.98
2016-08-24T08:47:27.993Z,962.97
2016-08-24T08:48:14.785Z,962.99
2016-08-24T08:49:20.009Z,962.97
2016-08-24T08:50:27.525Z,962.98
2016-08-24T08:51:25.710Z,962.95
2016-08-24T08:52:25.810Z,962.98
2016-08-24T08:53:14.343Z,962.94
2016-08-24T08:54:16.360Z,962.94
2016-08-24T08:55:28.288Z,962.92
2016-08-24T08:56:20.990Z,962.92
2016-08-24T08:57:17.146Z,962.96
2016-08-24T08:58:27.850Z,962.92
2016-08-24T08:59:26.398Z,962.97
2016-08-24T09:00:25.371Z,962.89
2016-08-24T09:01:22.869Z,962.94
2016-08-24T09:02:27.176Z,962.90
2016-08-24T09:03:12.455Z,962.89
2016-08-24T09:04:14.711Z,962.87
2016-08-24T09:05:19.103Z,962.94
2016-08-24T09:06:27.084Z,962.86
2016-08-24T09:07:25.559Z,962.84
2016-08-24T09:08:26.265Z,962.87
2016-08-24T09:09:23.870Z,962.90
2016-08-24T09:10:22.911Z,962.87
2016-08-24T09:11:26.675Z,962.95
2016-08-24T09:12:28.998Z,962.92
2016-08-24T09:13:35.388Z,962.89
2016-08-24T09:14:28.059Z,962.92
2016-08-24T09:15:35.839Z,962.88
2016-08-24T09:16:33.360Z,962.83
2016-08-24T09:17:27.539Z,962.86
2016-08-24T09:18:33.023Z,962.86
2016-08-24T09:19:30.135Z,962.78
2016-08-24T09:20:29.013Z,962.77
2016-08-24T09:21:28.880Z,962.80
2016-08-24T09:22:27.235Z,962.76
2016-08-24T09:23:25.737Z,962.76
2016-08-24T09:24:28.203Z,962.79
2016-08-24T09:25:32.208Z,962.83
2016-08-24T09:26:23.699Z,962.81
2016-08-24T09:27:23.154Z,962.81
2016-08-24T09:28:30.066Z,962.81
2016-08-24T09:29:24.469Z,962.82
2016-08-24T09:30:28.163Z,962.79
2016-08-24T09:31:28.902Z,962.82
2016-08-24T09:32:28.687Z,962.77
2016-08-24T09:33:38.857Z,962.78
2016-08-24T09:34:56.123Z,962.81
2016-08-24T09:35:20.999Z,962.87
2016-08-24T09:36:28.156Z,962.88
2016-08-24T09:37:29.847Z,962.87
2016-08-24T09:38:35.566Z,962.88
2016-08-24T09:39:34.712Z,962.86
2016-08-24T09:40:26.046Z,962.88
2016-08-24T09:41:27.273Z,962.86
2016-08-24T09:42:29.511Z,962.90
2016-08-24T09:43:30.965Z,962.86
2016-08-24T09:44:24.659Z,962.87
2016-08-24T09:45:34.269Z,962.85
2016-08-24T09:46:27.537Z,962.78
2016-08-24T09:47:27.294Z,962.80
2016-08-24T09:48:33.223Z,962.76
2016-08-24T09:49:27.579Z,962.79
2016-08-24T09:50:28.520Z,962.72
2016-08-24T09:51:24.192Z,962.78
2016-08-24T09:52:30.505Z,962.69
2016-08-24T09:53:28.749Z,962.70
2016-08-24T09:54:33.459Z,962.74
2016-08-24T09:55:34.115Z,962.73
2016-08-24T09:56:33.890Z,962.71
2016-08-24T09:57:27.299Z,962.68
2016-08-24T09:58:24.177Z,962.68
2016-08-24T09:59:30.042Z,962.71
2016-08-24T10:00:29.529Z,962.65
2016-08-24T10:01:35.999Z,962.64
2016-08-24T10:02:28.692Z,962.63
2016-08-24T10:03:28.386Z,962.59
2016-08-24T10:04:25.885Z,962.63
2016-08-24T10:05:25.591Z,962.63
2016-08-24T10:06:24.010Z,962.64
2016-08-24T10:07:26.994Z,962.62
2016-08-24T10:08:26.946Z,962.62
2016-08-24T10:09:33.450Z,962.69
2016-08-24T10:10:34.395Z,962.64
2016-08-24T10:11:27.867Z,962.65
2016-08-24T10:12:26.099Z,962.63
2016-08-24T10:13:40.702Z,962.58
2016-08-24T10:14:32.093Z,962.62
2016-08-24T10:15:23.443Z,962.57
2016-08-24T10:16:30.279Z,962.58
2016-08-24T10:17:33.337Z,962.55
2016-08-24T10:18:35.980Z,962.61
2016-08-24T10:19:33.084Z,962.62
2016-08-24T10:20:25.941Z,962.61
2016-08-24T10:21:27.502Z,962.58
2016-08-24T10:22:23.317Z,962.56
2016-08-24T10:23:30.669Z,962.57
2016-08-24T10:24:30.212Z,962.58
2016-08-24T10:25:37.214Z,962.56
2016-08-24T10:26:34.486Z,962.53
2016-08-24T10:27:27.660Z,962.56
2016-08-24T10:28:25.841Z,962.51
2016-08-24T10:29:27.051Z,962.57
2016-08-24T10:30:32.861Z,962.54
2016-08-24T10:31:23.007Z,962.56
2016-08-24T10:32:29.650Z,962.60
2016-08-24T10:33:33.682Z,962.54
2016-08-24T10:34:34.924Z,962.66
2016-08-24T10:35:26.200Z,962.59
2016-08-24T10:36:25.867Z,962.62
2016-08-24T10:37:29.294Z,962.58
2016-08-24T10:38:24.171Z,962.59
2016-08-24T10:39:23.920Z,962.62
2016-08-24T10:40:30.255Z,962.57
2016-08-24T10:41:28.087Z,962.54
2016-08-24T10:42:42.968Z,962.53
2016-08-24T10:43:28.142Z,962.57
2016-08-24T10:44:25.910Z,962.53
2016-08-24T10:45:27.038Z,962.51
2016-08-24T10:46:27.070Z,962.47
2016-08-24T10:47:28.138Z,962.49
2016-08-24T10:48:27.466Z,962.51
2016-08-24T10:49:28.972Z,962.48
2016-08-24T10:50:28.067Z,962.46
2016-08-24T10:51:22.961Z,962.46
2016-08-24T10:52:28.844Z,962.44
2016-08-24T10:53:30.200Z,962.40
2016-08-24T10:54:28.004Z,962.41
2016-08-24T10:55:36.485Z,962.36
2016-08-24T10:56:32.905Z,962.40
2016-08-24T10:57:29.106Z,962.37
2016-08-24T10:58:28.875Z,962.38
2016-08-24T10:59:27.858Z,962.38
2016-08-24T11:00:25.934Z,962.36
2016-08-24T11:01:24.152Z,962.36
2016-08-24T11:02:37.528Z,962.45
2016-08-24T11:03:39.775Z,962.44
2016-08-24T11:04:39.520Z,962.48
2016-08-24T11:05:44.735Z,962.44
2016-08-24T11:06:41.156Z,962.37
2016-08-24T11:07:40.598Z,962.38
2016-08-24T11:08:39.505Z,962.39
2016-08-24T11:09:34.551Z,962.34
2016-08-24T11:10:48.050Z,962.34
2016-08-24T11:11:47.181Z,962.32
2016-08-24T11:12:40.234Z,962.33
2016-08-24T11:13:34.318Z,962.28
2016-08-24T11:14:36.125Z,962.26
2016-08-24T11:15:39.271Z,962.23
2016-08-24T11:16:38.159Z,962.29
2016-08-24T11:17:36.045Z,962.24
2016-08-24T11:18:50.177Z,962.28
2016-08-24T11:19:39.190Z,962.19
2016-08-24T11:20:39.470Z,962.21
2016-08-24T11:21:47.487Z,962.24
2016-08-24T11:22:41.062Z,962.29
2016-08-24T11:23:42.434Z,962.22
2016-08-24T11:24:31.971Z,962.20
2016-08-24T11:25:28.878Z,962.22
2016-08-24T11:26:34.194Z,962.17
2016-08-24T11:27:33.702Z,962.17
2016-08-24T11:28:35.749Z,962.20
2016-08-24T11:29:41.445Z,962.18
2016-08-24T11:30:34.288Z,962.20
2016-08-24T11:31:38.527Z,962.19
2016-08-24T11:32:34.718Z,962.17
2016-08-24T11:33:38.882Z,962.18
2016-08-24T11:34:40.332Z,962.11
2016-08-24T11:35:38.512Z,962.15
2016-08-24T11:36:43.442Z,962.13
2016-08-24T11:37:44.362Z,962.21
2016-08-24T11:38:40.320Z,962.14
2016-08-24T11:39:52.220Z,962.16
2016-08-24T11:40:35.189Z,962.16
2016-08-24T11:41:28.494Z,962.18
2016-08-24T11:42:32.963Z,962.18
2016-08-24T11:43:29.074Z,962.14
2016-08-24T11:44:26.909Z,962.15
2016-08-24T11:45:17.548Z,962.19
2016-08-24T11:46:31.479Z,962.18
2016-08-24T11:47:29.069Z,962.19
2016-08-24T11:48:29.783Z,962.21
2016-08-24T11:49:29.386Z,962.17
2016-08-24T11:50:33.551Z,962.22
2016-08-24T11:51:39.259Z,962.21
2016-08-24T11:52:41.734Z,962.16
2016-08-24T11:53:47.699Z,962.15
2016-08-24T11:54:40.496Z,962.12
2016-08-24T11:55:41.759Z,962.13
2016-08-24T11:56:32.146Z,962.14
2016-08-24T11:57:39.152Z,962.12
2016-08-24T11:58:42.033Z,962.10
2016-08-24T11:59:39.179Z,962.08
2016-08-24T12:00:40.122Z,962.12
2016-08-24T12:01:35.075Z,962.13
2016-08-24T12:02:39.443Z,962.09
2016-08-24T12:03:39.754Z,962.17
2016-08-24T12:04:34.181Z,962.09
2016-08-24T12:05:34.849Z,962.09
2016-08-24T12:06:33.707Z,962.08
2016-08-24T12:07:43.768Z,962.01
2016-08-24T12:08:35.462Z,962.01
2016-08-24T12:09:29.576Z,962.00
2016-08-24T12:10:35.437Z,961.99
2016-08-24T12:11:40.986Z,961.95
2016-08-24T12:12:39.889Z,961.98
2016-08-24T12:13:40.341Z,961.97
2016-08-24T12:14:39.900Z,961.93
2016-08-24T12:15:34.618Z,961.97
2016-08-24T12:16:39.704Z,961.92
2016-08-24T12:17:46.293Z,961.95
2016-08-24T12:18:42.865Z,961.91
2016-08-24T12:19:44.942Z,961.96
2016-08-24T12:20:38.158Z,961.99
2016-08-24T12:21:33.351Z,961.98
2016-08-24T12:22:44.228Z,961.94
2016-08-24T12:23:45.660Z,961.94
2016-08-24T12:24:39.779Z,961.96
2016-08-24T12:25:40.208Z,961.99
2016-08-24T12:26:47.136Z,961.87
2016-08-24T12:27:47.652Z,961.93
2016-08-24T12:28:36.419Z,961.96